To NAV CANADA Home Page Login to a new session Search on AWWS site Feedback and Comments Disclaimer Vers la page française équivalente Tips FAQ What's new on the site To the Forecasts and Observations / NOTAM section To "File a Flight Plan" website Publications and other links Update of the User's profile FIC Telephone Numbers My Weather Data Folder Route Weather Data Regional Weather Data Local Weather Data To the Forecasts and Observations / NOTAM section
Request Generated 09/30/2016 at 15:07:58 UTC . Weather information available at that time is displayed.

METAR/TAF

COLD LAKE/GROUP CAPTAIN R.W. MCNAIR/AB    

METAR CYOD 301500Z 01010KT 15SM VCSH FEW008 SCT035 OVC060 09/08 A3011 RMK SF1SC2SC5 SLP213=
SPECI CYOD 301447Z 35007KT 6SM BR FEW008 SCT035 OVC060 08/08 A3011 RMK SF1SC2SC5 SLP213=
METAR CYOD 301400Z 36005KT 6SM -SHRA BR FEW030 BKN090 OVC110 09/09 A3010 RMK SC2AC5AC1 SLP209=
SPECI CYOD 301347Z 02007KT 6SM -SHRA BR FEW030 OVC110 09/09 A3009 RMK SC2AC6 SLP203=
METAR CYOD 301300Z 03004KT 12SM -SHRA FEW060 OVC090 08/08 A3009 RMK SC2AC6 SLP205=

TAF CYOD 301430Z 3015/0112 01008KT P6SM FEW010 SCT030 OVC100 TEMPO
3015/3018 5SM -SHRA BR BKN012 OVC030
FM301800 04010KT P6SM SCT015 OVC040 TEMPO 3018/0103 BKN015 OVC030
FM010300 04010KT P6SM SCT008 OVC020 TEMPO 0103/0112 3SM -SHRA -DZ
BR BKN008 OVC012
RMK NXT FCST BY 301800Z=
Your time UTC time
Weather data provided by Environment Canada and NAV CANADA